createdAt,value
2023-08-26T00:00:34.959Z,1.50
2023-08-26T00:03:01.230Z,1.40
2023-08-26T00:05:27.522Z,1.50
2023-08-26T00:07:54.005Z,1.45
2023-08-26T00:10:23.103Z,1.15
2023-08-26T00:12:49.520Z,1.50
2023-08-26T00:15:16.350Z,1.50
2023-08-26T00:17:45.372Z,1.70
2023-08-26T00:20:11.536Z,1.20
2023-08-26T00:22:38.124Z,1.55
2023-08-26T00:25:04.628Z,1.60
2023-08-26T00:27:33.713Z,1.80
2023-08-26T00:29:59.756Z,1.40
2023-08-26T00:32:26.040Z,1.75
2023-08-26T00:34:52.166Z,1.35
2023-08-26T00:37:18.244Z,1.58
2023-08-26T00:39:44.362Z,1.30
2023-08-26T00:42:10.559Z,1.98
2023-08-26T00:44:36.682Z,1.33
2023-08-26T00:47:03.041Z,1.70
2023-08-26T00:49:29.662Z,1.38
2023-08-26T00:51:56.179Z,2.42
2023-08-26T00:54:22.479Z,1.48
2023-08-26T00:56:48.759Z,1.45
2023-08-26T00:59:14.929Z,1.60
2023-08-26T01:01:42.179Z,1.45
2023-08-26T01:04:08.199Z,1.60
2023-08-26T01:06:34.488Z,1.52
2023-08-26T01:09:00.642Z,1.20
2023-08-26T01:11:50.277Z,1.48
2023-08-26T01:14:37.186Z,1.45
2023-08-26T01:17:06.811Z,1.40
2023-08-26T01:19:38.106Z,1.90
2023-08-26T01:22:07.222Z,1.65
2023-08-26T01:24:34.668Z,1.52
2023-08-26T01:27:00.758Z,1.70
2023-08-26T01:29:27.061Z,1.58
2023-08-26T01:32:19.055Z,1.70
2023-08-26T01:34:52.004Z,1.48
2023-08-26T01:37:22.773Z,2.75
2023-08-26T01:39:49.787Z,1.35
2023-08-26T01:42:22.395Z,1.73
2023-08-26T01:44:48.927Z,1.60
2023-08-26T01:47:16.261Z,1.50
2023-08-26T01:49:44.810Z,1.52
2023-08-26T01:52:11.497Z,1.80
2023-08-26T01:54:37.585Z,1.80
2023-08-26T01:57:03.867Z,1.50
2023-08-26T01:59:32.938Z,1.50
2023-08-26T02:01:59.065Z,2.25
2023-08-26T02:04:25.310Z,1.50
2023-08-26T02:06:51.517Z,1.90
2023-08-26T02:09:17.596Z,1.50
2023-08-26T02:11:48.716Z,2.35
2023-08-26T02:14:14.773Z,1.88
2023-08-26T02:16:43.557Z,1.30
2023-08-26T02:19:09.694Z,1.50
2023-08-26T02:21:35.709Z,1.40
2023-08-26T02:24:01.821Z,1.50
2023-08-26T02:26:27.947Z,1.80
2023-08-26T02:28:54.041Z,1.83
2023-08-26T02:31:23.082Z,1.67
2023-08-26T02:33:49.711Z,1.40
2023-08-26T02:36:15.785Z,1.67
2023-08-26T02:38:41.878Z,1.90
2023-08-26T02:41:08.269Z,2.15
2023-08-26T02:43:34.276Z,1.70
2023-08-26T02:46:00.366Z,1.42
2023-08-26T02:48:27.042Z,1.77
2023-08-26T02:50:57.449Z,2.03
2023-08-26T02:53:25.285Z,1.75
2023-08-26T02:55:52.052Z,1.92
2023-08-26T02:58:19.352Z,1.80
2023-08-26T03:00:46.400Z,1.70
2023-08-26T03:03:12.582Z,1.85
2023-08-26T03:05:38.783Z,1.67
2023-08-26T03:08:08.045Z,1.80
2023-08-26T03:10:34.760Z,2.10
2023-08-26T03:13:00.982Z,1.73
2023-08-26T03:15:28.667Z,1.67
2023-08-26T03:17:58.387Z,1.90
2023-08-26T03:20:25.026Z,1.77
2023-08-26T03:22:51.192Z,1.80
2023-08-26T03:25:17.555Z,1.88
2023-08-26T03:27:43.723Z,2.28
2023-08-26T03:30:10.335Z,2.50
2023-08-26T03:32:36.991Z,2.20
2023-08-26T03:35:06.258Z,2.38
2023-08-26T03:37:34.854Z,1.85
2023-08-26T03:40:00.927Z,2.25
2023-08-26T03:42:27.213Z,2.03
2023-08-26T03:44:53.273Z,2.03
2023-08-26T03:47:20.190Z,2.30
2023-08-26T03:49:46.305Z,2.50
2023-08-26T03:52:12.331Z,1.67
2023-08-26T03:54:43.530Z,1.65
2023-08-26T03:57:09.566Z,2.38
2023-08-26T03:59:38.182Z,2.40
2023-08-26T04:02:04.590Z,2.30
2023-08-26T04:04:31.707Z,2.15
2023-08-26T04:07:00.656Z,2.50
2023-08-26T04:09:33.232Z,2.30
2023-08-26T04:11:59.363Z,2.03
2023-08-26T04:14:25.383Z,2.55
2023-08-26T04:16:51.487Z,2.38
2023-08-26T04:19:17.536Z,1.88
2023-08-26T04:21:43.622Z,2.20
2023-08-26T04:24:09.816Z,2.55
2023-08-26T04:26:35.872Z,2.60
2023-08-26T04:29:02.166Z,2.47
2023-08-26T04:31:28.495Z,2.15
2023-08-26T04:33:54.728Z,2.28
2023-08-26T04:36:23.767Z,2.92
2023-08-26T04:38:49.944Z,3.10
2023-08-26T04:41:15.958Z,2.53
2023-08-26T04:43:44.849Z,2.70
2023-08-26T04:46:10.977Z,2.88
2023-08-26T04:48:37.091Z,3.03
2023-08-26T04:51:04.938Z,2.70
2023-08-26T04:53:32.214Z,2.70
2023-08-26T04:56:01.306Z,3.00
2023-08-26T04:58:27.637Z,2.80
2023-08-26T05:00:53.937Z,2.90
2023-08-26T05:03:20.229Z,2.63
2023-08-26T05:05:46.399Z,2.40
2023-08-26T05:08:12.573Z,3.35
2023-08-26T05:10:39.292Z,2.92
2023-08-26T05:13:05.413Z,2.55
2023-08-26T05:15:32.152Z,2.72
2023-08-26T05:18:01.378Z,3.53
2023-08-26T05:20:28.412Z,3.83
2023-08-26T05:22:54.631Z,3.65
2023-08-26T05:25:20.758Z,3.30
2023-08-26T05:27:48.013Z,3.47
2023-08-26T05:30:14.304Z,3.88
2023-08-26T05:32:40.610Z,3.33
2023-08-26T05:35:06.962Z,3.20
2023-08-26T05:37:33.026Z,3.10
2023-08-26T05:40:00.594Z,3.50
2023-08-26T05:42:26.712Z,3.22
2023-08-26T05:44:52.785Z,3.35
2023-08-26T05:47:18.845Z,4.10
2023-08-26T05:49:44.924Z,4.18
2023-08-26T05:52:10.990Z,3.55
2023-08-26T05:54:37.149Z,3.60
2023-08-26T05:57:12.703Z,3.80
2023-08-26T05:59:39.714Z,3.25
2023-08-26T06:02:06.142Z,3.92
2023-08-26T06:04:32.224Z,3.90
2023-08-26T06:07:03.529Z,3.63
2023-08-26T06:09:29.667Z,3.75
2023-08-26T06:11:58.523Z,3.67
2023-08-26T06:14:29.743Z,4.05
2023-08-26T06:16:55.862Z,3.92
2023-08-26T06:19:21.950Z,3.67
2023-08-26T06:21:49.099Z,3.83
2023-08-26T06:24:15.224Z,4.47
2023-08-26T06:26:41.271Z,3.72
2023-08-26T06:29:16.996Z,4.13
2023-08-26T06:31:43.176Z,3.90
2023-08-26T06:34:09.308Z,3.85
2023-08-26T06:36:35.475Z,4.00
2023-08-26T06:39:01.589Z,4.22
2023-08-26T06:41:30.848Z,4.57
2023-08-26T06:44:02.031Z,4.60
2023-08-26T06:46:28.082Z,4.88
2023-08-26T06:48:54.319Z,4.55
2023-08-26T06:51:20.895Z,4.32
2023-08-26T06:53:53.020Z,4.35
2023-08-26T06:56:19.045Z,4.63
2023-08-26T06:58:45.266Z,4.38
2023-08-26T07:01:11.433Z,4.35
2023-08-26T07:03:37.729Z,4.38
2023-08-26T07:06:04.907Z,4.70
2023-08-26T07:08:31.070Z,4.65
2023-08-26T07:10:57.158Z,4.18
2023-08-26T07:13:23.210Z,4.45
2023-08-26T07:15:49.322Z,3.83
2023-08-26T07:18:16.562Z,4.53
2023-08-26T07:20:44.990Z,4.22
2023-08-26T07:23:11.027Z,4.50
2023-08-26T07:25:39.956Z,4.07
2023-08-26T07:28:06.275Z,3.80
2023-08-26T07:30:32.382Z,4.78
2023-08-26T07:32:58.466Z,4.05
2023-08-26T07:35:27.296Z,3.80
2023-08-26T07:37:53.574Z,4.25
2023-08-26T07:40:20.053Z,4.65
2023-08-26T07:42:46.261Z,4.50
2023-08-26T07:45:12.607Z,4.55
2023-08-26T07:50:12.695Z,4.43
2023-08-26T07:52:39.060Z,4.50
2023-08-26T07:55:06.335Z,4.90
2023-08-26T07:57:32.640Z,5.05
2023-08-26T07:59:58.767Z,4.63
2023-08-26T08:02:24.903Z,4.47
2023-08-26T08:04:51.119Z,4.97
2023-08-26T08:07:17.176Z,5.45
2023-08-26T08:09:43.236Z,5.28
2023-08-26T08:12:15.157Z,5.22
2023-08-26T08:14:41.979Z,4.43
2023-08-26T08:17:08.017Z,5.55
2023-08-26T08:19:47.567Z,5.82
2023-08-26T08:22:19.574Z,5.60
2023-08-26T08:24:46.491Z,5.93
2023-08-26T08:27:12.514Z,5.97
2023-08-26T08:29:41.277Z,5.72
2023-08-26T08:32:07.389Z,5.97
2023-08-26T08:34:33.580Z,5.78
2023-08-26T08:37:03.522Z,5.78
2023-08-26T08:39:29.568Z,5.55
2023-08-26T08:41:56.233Z,5.90
2023-08-26T08:44:23.468Z,4.78
2023-08-26T08:46:49.542Z,5.32
2023-08-26T08:49:15.903Z,5.45
2023-08-26T08:51:42.127Z,5.38
2023-08-26T08:54:08.533Z,4.95
2023-08-26T08:56:35.109Z,4.82
2023-08-26T08:59:03.617Z,4.82
2023-08-26T09:01:31.206Z,4.18
2023-08-26T09:03:57.432Z,3.75
2023-08-26T09:06:23.488Z,4.03
2023-08-26T09:08:50.626Z,3.53
2023-08-26T09:11:16.779Z,4.40
2023-08-26T09:13:43.875Z,4.57
2023-08-26T09:16:10.448Z,3.42
2023-08-26T09:18:40.165Z,3.88
2023-08-26T09:21:10.584Z,4.00
2023-08-26T09:23:45.869Z,4.03
2023-08-26T09:26:12.205Z,4.40
2023-08-26T09:28:39.002Z,4.70
2023-08-26T09:31:09.124Z,4.65
2023-08-26T09:33:38.255Z,4.68
2023-08-26T09:38:50.855Z,4.50
2023-08-26T09:41:22.092Z,4.00
2023-08-26T09:43:48.148Z,6.30
2023-08-26T09:46:21.052Z,5.93
2023-08-26T09:48:48.638Z,5.65
2023-08-26T09:51:28.494Z,5.40
2023-08-26T09:53:55.382Z,5.53
2023-08-26T09:56:23.994Z,5.68
2023-08-26T09:58:50.639Z,4.38
2023-08-26T10:01:22.653Z,6.22
2023-08-26T10:04:05.270Z,6.32
2023-08-26T10:06:34.807Z,6.72
2023-08-26T10:09:07.581Z,6.70
2023-08-26T10:11:39.296Z,7.43
2023-08-26T10:14:06.263Z,7.10
2023-08-26T10:16:35.227Z,7.28
2023-08-26T10:19:04.431Z,7.07
2023-08-26T10:21:31.182Z,7.72
2023-08-26T10:23:57.532Z,7.72
2023-08-26T10:26:24.235Z,8.10
2023-08-26T10:28:50.950Z,7.53
2023-08-26T10:31:19.570Z,7.50
2023-08-26T10:34:01.176Z,7.90
2023-08-26T10:36:29.901Z,7.65
2023-08-26T10:38:59.604Z,6.97
2023-08-26T10:41:26.771Z,6.82
2023-08-26T10:43:55.648Z,6.75
2023-08-26T10:46:35.466Z,6.63
2023-08-26T10:49:06.857Z,6.90
2023-08-26T10:51:36.037Z,6.85
2023-08-26T10:54:03.761Z,6.82
2023-08-26T10:56:33.969Z,5.32
2023-08-26T10:59:06.824Z,5.93
2023-08-26T11:01:35.893Z,5.68
2023-08-26T11:04:04.148Z,5.85
2023-08-26T11:06:36.455Z,6.18
2023-08-26T11:09:04.106Z,5.82
2023-08-26T11:11:30.362Z,5.38
2023-08-26T11:13:57.867Z,5.93
2023-08-26T11:16:24.165Z,5.55
2023-08-26T11:18:57.314Z,5.50
2023-08-26T11:21:23.540Z,5.22
2023-08-26T11:23:55.135Z,4.63
2023-08-26T11:26:21.834Z,4.38
2023-08-26T11:28:51.603Z,4.45
2023-08-26T11:31:18.252Z,3.88
2023-08-26T11:33:44.885Z,3.05
2023-08-26T11:36:11.036Z,2.60
2023-08-26T11:38:37.602Z,3.17
2023-08-26T11:41:07.529Z,2.90
2023-08-26T11:43:37.179Z,3.70
2023-08-26T11:46:05.940Z,3.47
2023-08-26T11:48:35.715Z,3.67
2023-08-26T11:51:04.237Z,3.22
2023-08-26T11:53:30.674Z,2.70
2023-08-26T11:55:56.964Z,3.63
2023-08-26T11:58:23.190Z,3.08
2023-08-26T12:00:49.536Z,3.20
2023-08-26T12:03:17.654Z,3.65
2023-08-26T12:05:49.743Z,2.95
2023-08-26T12:08:17.168Z,3.20
2023-08-26T12:10:54.169Z,3.53
2023-08-26T12:13:20.710Z,3.00
2023-08-26T12:15:47.908Z,2.78
2023-08-26T12:18:14.963Z,3.65
2023-08-26T12:20:45.136Z,2.67
2023-08-26T12:23:11.281Z,2.40
2023-08-26T12:25:40.922Z,3.00
2023-08-26T12:28:14.173Z,2.42
2023-08-26T12:30:44.400Z,2.90
2023-08-26T12:33:21.624Z,2.75
2023-08-26T12:35:51.977Z,2.88
2023-08-26T12:38:18.760Z,2.90
2023-08-26T12:40:48.470Z,3.30
2023-08-26T12:43:16.448Z,2.58
2023-08-26T12:45:43.576Z,3.10
2023-08-26T12:48:09.745Z,2.78
2023-08-26T12:50:35.990Z,2.90
2023-08-26T12:53:02.377Z,2.70
2023-08-26T12:55:28.512Z,2.63
2023-08-26T12:57:56.229Z,2.50
2023-08-26T13:00:22.596Z,3.15
2023-08-26T13:02:49.026Z,2.75
2023-08-26T13:05:15.091Z,2.33
2023-08-26T13:07:41.247Z,3.05
2023-08-26T13:10:08.129Z,2.97
2023-08-26T13:12:34.859Z,2.80
2023-08-26T13:15:00.888Z,2.67
2023-08-26T13:17:27.453Z,2.92
2023-08-26T13:19:53.783Z,2.55
2023-08-26T13:22:20.095Z,2.90
2023-08-26T13:24:46.307Z,2.90
2023-08-26T13:27:12.382Z,3.10
2023-08-26T13:29:45.902Z,3.28
2023-08-26T13:32:12.033Z,3.35
2023-08-26T13:34:38.170Z,3.22
2023-08-26T13:37:04.515Z,3.00
2023-08-26T13:39:30.642Z,2.92
2023-08-26T13:41:57.697Z,3.03
2023-08-26T13:44:26.685Z,3.03
2023-08-26T13:46:52.752Z,3.08
2023-08-26T13:49:18.847Z,2.45
2023-08-26T13:51:44.958Z,3.33
2023-08-26T13:54:11.126Z,2.97
2023-08-26T13:56:37.297Z,2.65
2023-08-26T13:59:06.005Z,2.55
2023-08-26T14:01:32.345Z,2.30
2023-08-26T14:04:01.525Z,2.33
2023-08-26T14:06:27.834Z,2.05
2023-08-26T14:08:53.882Z,2.45
2023-08-26T14:11:21.780Z,2.33
2023-08-26T14:13:48.881Z,2.42
2023-08-26T14:16:15.010Z,2.17
2023-08-26T14:18:41.194Z,2.85
2023-08-26T14:21:07.375Z,2.33
2023-08-26T14:23:36.248Z,1.80
2023-08-26T14:26:02.924Z,1.60
2023-08-26T14:28:37.851Z,1.90
2023-08-26T14:31:03.982Z,1.70
2023-08-26T14:33:30.092Z,1.40
2023-08-26T14:36:03.731Z,1.50
2023-08-26T14:38:30.136Z,1.52
2023-08-26T14:40:56.295Z,1.25
2023-08-26T14:43:22.513Z,1.10
2023-08-26T14:45:49.428Z,1.23
2023-08-26T14:48:16.159Z,1.10
2023-08-26T14:50:42.605Z,1.98
2023-08-26T14:53:09.649Z,2.70
2023-08-26T14:55:44.558Z,1.60
2023-08-26T14:58:10.884Z,1.10
2023-08-26T15:00:37.904Z,1.40
2023-08-26T15:03:05.392Z,1.25
2023-08-26T15:05:31.782Z,1.67
2023-08-26T15:07:58.092Z,1.40
2023-08-26T15:10:24.550Z,1.15
2023-08-26T15:12:50.788Z,1.17
2023-08-26T15:15:17.176Z,1.00
2023-08-26T15:17:43.541Z,1.90
2023-08-26T15:20:09.973Z,2.10
2023-08-26T15:22:36.277Z,3.55
2023-08-26T15:25:03.871Z,6.13
2023-08-26T15:27:30.465Z,1.88
2023-08-26T15:29:56.595Z,2.05
2023-08-26T15:32:22.678Z,1.95
2023-08-26T15:34:51.416Z,4.68
2023-08-26T15:37:17.471Z,1.20
2023-08-26T15:39:43.749Z,1.10
2023-08-26T15:42:12.453Z,1.00
2023-08-26T15:44:38.549Z,1.10
2023-08-26T15:47:04.681Z,1.88
2023-08-26T15:49:30.826Z,4.97
2023-08-26T15:51:59.821Z,2.30
2023-08-26T15:54:25.960Z,1.40
2023-08-26T15:56:52.152Z,1.42
2023-08-26T15:59:18.201Z,1.33
2023-08-26T16:01:44.385Z,1.58
2023-08-26T16:04:10.537Z,1.00
2023-08-26T16:06:36.655Z,1.20
2023-08-26T16:09:02.911Z,0.85
2023-08-26T16:11:31.412Z,1.00
2023-08-26T16:13:57.999Z,1.00
2023-08-26T16:16:24.238Z,0.98
2023-08-26T16:18:50.320Z,1.05
2023-08-26T16:21:16.385Z,1.05
2023-08-26T16:23:42.459Z,1.20
2023-08-26T16:26:11.331Z,1.10
2023-08-26T16:28:37.550Z,1.08
2023-08-26T16:31:07.084Z,1.02
2023-08-26T16:33:33.289Z,0.73
2023-08-26T16:36:03.173Z,1.50
2023-08-26T16:38:29.812Z,1.00
2023-08-26T16:40:56.044Z,1.60
2023-08-26T16:43:22.117Z,1.58
2023-08-26T16:45:48.354Z,1.10
2023-08-26T16:48:14.957Z,0.90
2023-08-26T16:50:42.235Z,1.27
2023-08-26T16:53:09.080Z,1.08
2023-08-26T16:55:35.901Z,1.08
2023-08-26T16:58:02.017Z,1.20
2023-08-26T17:00:28.223Z,1.00
2023-08-26T17:02:54.496Z,1.08
2023-08-26T17:05:20.707Z,1.52
2023-08-26T17:07:46.911Z,2.10
2023-08-26T17:10:13.249Z,1.17
2023-08-26T17:12:39.355Z,1.48
2023-08-26T17:15:06.200Z,1.45
2023-08-26T17:17:35.187Z,1.48
2023-08-26T17:20:01.249Z,1.00
2023-08-26T17:22:27.353Z,1.20
2023-08-26T17:24:53.959Z,1.05
2023-08-26T17:27:20.144Z,1.60
2023-08-26T17:29:46.674Z,1.30
2023-08-26T17:32:15.606Z,1.48
2023-08-26T17:34:46.581Z,1.55
2023-08-26T17:37:17.578Z,1.17
2023-08-26T17:39:44.309Z,1.30
2023-08-26T17:42:10.387Z,1.27
2023-08-26T17:44:36.640Z,1.40
2023-08-26T17:47:03.210Z,1.38
2023-08-26T17:49:29.423Z,1.17
2023-08-26T17:51:55.962Z,1.23
2023-08-26T17:54:22.101Z,1.42
2023-08-26T17:56:48.265Z,1.17
2023-08-26T17:59:16.537Z,1.27
2023-08-26T18:01:43.130Z,1.27
2023-08-26T18:04:09.287Z,2.05
2023-08-26T18:06:35.556Z,2.70
2023-08-26T18:09:01.977Z,1.40
2023-08-26T18:11:28.649Z,1.55
2023-08-26T18:13:54.939Z,1.10
2023-08-26T18:16:24.533Z,1.17
2023-08-26T18:18:53.302Z,1.10
2023-08-26T18:21:19.751Z,1.20
2023-08-26T18:23:45.998Z,1.33
2023-08-26T18:26:12.104Z,1.30
2023-08-26T18:28:49.088Z,1.83
2023-08-26T18:31:15.301Z,1.33
2023-08-26T18:33:41.657Z,1.50
2023-08-26T18:36:07.854Z,1.30
2023-08-26T18:38:34.161Z,1.75
2023-08-26T18:41:00.925Z,1.63
2023-08-26T18:43:32.353Z,1.42
2023-08-26T18:45:58.464Z,1.60
2023-08-26T18:48:24.505Z,1.35
2023-08-26T18:51:01.391Z,1.13
2023-08-26T18:53:28.500Z,1.48
2023-08-26T18:55:55.194Z,1.40
2023-08-26T18:58:22.826Z,1.17
2023-08-26T19:00:49.976Z,1.83
2023-08-26T19:03:16.048Z,1.10
2023-08-26T19:05:51.096Z,1.70
2023-08-26T19:08:18.028Z,1.60
2023-08-26T19:10:48.462Z,2.03
2023-08-26T19:13:22.405Z,1.80
2023-08-26T19:15:48.625Z,1.60
2023-08-26T19:18:15.151Z,1.73
2023-08-26T19:20:41.295Z,2.03
2023-08-26T19:23:07.433Z,1.80
2023-08-26T19:25:35.120Z,1.30
2023-08-26T19:28:03.541Z,1.50
2023-08-26T19:30:29.770Z,1.38
2023-08-26T19:32:56.191Z,1.10
2023-08-26T19:35:23.825Z,1.20
2023-08-26T19:37:51.517Z,1.40
2023-08-26T19:40:17.897Z,1.45
2023-08-26T19:42:44.042Z,1.65
2023-08-26T19:45:10.682Z,1.75
2023-08-26T19:47:39.782Z,2.05
2023-08-26T19:50:06.634Z,1.83
2023-08-26T19:52:33.853Z,1.88
2023-08-26T19:54:59.899Z,2.13
2023-08-26T19:57:31.193Z,2.10
2023-08-26T20:00:03.994Z,2.10
2023-08-26T20:02:30.125Z,1.67
2023-08-26T20:05:01.258Z,1.95
2023-08-26T20:07:27.607Z,1.85
2023-08-26T20:09:54.463Z,1.65
2023-08-26T20:12:33.437Z,1.50
2023-08-26T20:15:03.457Z,1.70
2023-08-26T20:17:30.291Z,1.55
2023-08-26T20:19:56.925Z,1.80
2023-08-26T20:22:23.575Z,1.90
2023-08-26T20:24:49.834Z,1.65
2023-08-26T20:27:16.314Z,1.45
2023-08-26T20:29:42.549Z,1.77
2023-08-26T20:32:08.635Z,1.70
2023-08-26T20:34:36.975Z,2.40
2023-08-26T20:37:03.945Z,2.10
2023-08-26T20:39:30.045Z,2.05
2023-08-26T20:41:56.204Z,1.92
2023-08-26T20:44:22.540Z,2.30
2023-08-26T20:46:48.664Z,1.95
2023-08-26T20:49:17.133Z,2.50
2023-08-26T20:51:43.291Z,3.08
2023-08-26T20:54:10.671Z,3.78
2023-08-26T20:56:36.752Z,4.00
2023-08-26T20:59:02.802Z,3.83
2023-08-26T21:01:31.672Z,3.90
2023-08-26T21:03:57.846Z,3.30
2023-08-26T21:06:27.150Z,3.33
2023-08-26T21:08:53.795Z,3.08
2023-08-26T21:11:20.148Z,3.85
2023-08-26T21:13:46.169Z,3.20
2023-08-26T21:16:12.800Z,2.92
2023-08-26T21:18:39.034Z,2.33
2023-08-26T21:21:05.239Z,1.95
2023-08-26T21:23:31.408Z,2.08
2023-08-26T21:25:58.497Z,2.28
2023-08-26T21:28:26.560Z,2.60
2023-08-26T21:30:55.907Z,2.42
2023-08-26T21:33:22.849Z,2.45
2023-08-26T21:35:50.256Z,2.67
2023-08-26T21:38:16.572Z,2.17
2023-08-26T21:40:43.668Z,2.42
2023-08-26T21:43:11.931Z,3.13
2023-08-26T21:45:41.182Z,2.88
2023-08-26T21:48:07.711Z,3.05
2023-08-26T21:50:39.757Z,2.40
2023-08-26T21:53:08.485Z,2.53
2023-08-26T21:55:35.164Z,2.85
2023-08-26T21:58:05.806Z,2.67
2023-08-26T22:00:32.755Z,2.60
2023-08-26T22:02:59.610Z,2.60
2023-08-26T22:05:33.709Z,2.17
2023-08-26T22:08:05.165Z,2.60
2023-08-26T22:10:38.106Z,2.33
2023-08-26T22:13:10.817Z,2.20
2023-08-26T22:15:41.594Z,2.20
2023-08-26T22:18:08.532Z,1.95
2023-08-26T22:20:43.290Z,1.73
2023-08-26T22:23:09.500Z,2.08
2023-08-26T22:25:39.169Z,2.45
2023-08-26T22:28:05.625Z,2.05
2023-08-26T22:30:31.787Z,2.38
2023-08-26T22:32:58.328Z,2.05
2023-08-26T22:35:29.920Z,1.83
2023-08-26T22:37:58.422Z,2.08
2023-08-26T22:40:24.520Z,2.33
2023-08-26T22:42:50.758Z,2.22
2023-08-26T22:45:17.053Z,2.30
2023-08-26T22:47:49.789Z,2.50
2023-08-26T22:50:16.527Z,2.40
2023-08-26T22:52:42.672Z,2.13
2023-08-26T22:55:08.854Z,2.40
2023-08-26T22:57:34.934Z,2.75
2023-08-26T23:00:01.068Z,2.25
2023-08-26T23:02:27.156Z,2.40
2023-08-26T23:04:53.874Z,2.10
2023-08-26T23:07:25.151Z,1.85
2023-08-26T23:09:51.484Z,2.22
2023-08-26T23:12:17.710Z,2.10
2023-08-26T23:14:44.149Z,2.30
2023-08-26T23:17:10.612Z,2.33
2023-08-26T23:19:36.732Z,1.75
2023-08-26T23:22:03.028Z,2.00
2023-08-26T23:24:29.220Z,1.73
2023-08-26T23:26:55.421Z,2.08
2023-08-26T23:29:22.918Z,1.83
2023-08-26T23:31:49.510Z,2.20
2023-08-26T23:34:19.334Z,2.55
2023-08-26T23:36:46.611Z,2.03
2023-08-26T23:39:14.971Z,2.10
2023-08-26T23:41:42.210Z,1.70
2023-08-26T23:44:09.465Z,1.70
2023-08-26T23:46:35.774Z,2.83
2023-08-26T23:49:03.019Z,1.95
2023-08-26T23:51:29.130Z,2.10
2023-08-26T23:53:55.268Z,1.73
2023-08-26T23:56:21.462Z,1.63
2023-08-26T23:58:49.057Z,1.48
